Time;durP1;ratioP1;P1;durP2;ratioP2;P2;SDS_P1;SDS_P2;PMS_P1;PMS_P2;Temp;Humidity;BMP_temperature;BMP_pressure;BME280_temperature;BME280_humidity;BME280_pressure;Samples;Min_cycle;Max_cycle;Signal;HPM_P1;HPM_P2
2022/10/18 00:01:07;;;;;;;1.07;0.73;;;;;;;;;;5077510;28;20093;-61
2022/10/18 00:03:37;;;;;;;7.67;1.53;;;;;;;;;;5081154;28;20029;-62
2022/10/18 00:06:08;;;;;;;0.53;0.40;;;;;;;;;;5077710;28;20463;-61
2022/10/18 00:08:37;;;;;;;1.60;0.73;;;;;;;;;;5089128;28;20036;-61
2022/10/18 00:11:07;;;;;;;1.17;0.83;;;;;;;;;;5083953;28;20028;-61
2022/10/18 00:13:36;;;;;;;0.67;0.27;;;;;;;;;;5087317;28;20748;-61
2022/10/18 00:16:06;;;;;;;1.80;1.00;;;;;;;;;;5072856;28;20163;-62
2022/10/18 00:18:35;;;;;;;1.23;1.00;;;;;;;;;;5069872;28;20048;-61
2022/10/18 00:21:04;;;;;;;0.77;0.60;;;;;;;;;;5083329;28;20085;-62
2022/10/18 00:23:33;;;;;;;1.73;0.90;;;;;;;;;;5089660;28;20032;-60
2022/10/18 00:26:07;;;;;;;0.67;0.60;;;;;;;;;;5089835;28;20024;-61
2022/10/18 00:28:37;;;;;;;4.17;1.17;;;;;;;;;;5087042;28;20475;-61
2022/10/18 00:31:14;;;;;;;1.83;1.20;;;;;;;;;;5074837;28;20035;-61
2022/10/18 00:33:47;;;;;;;1.63;0.80;;;;;;;;;;5081995;28;20040;-61
2022/10/18 00:36:17;;;;;;;1.23;0.97;;;;;;;;;;5075018;28;20024;-61
2022/10/18 00:38:46;;;;;;;12.20;2.00;;;;;;;;;;5071579;28;20036;-61
2022/10/18 00:41:18;;;;;;;1.73;1.10;;;;;;;;;;5079934;28;20026;-61
2022/10/18 00:44:05;;;;;;;3.90;1.30;;;;;;;;;;5089404;28;20478;-61
2022/10/18 00:46:35;;;;;;;1.73;1.10;;;;;;;;;;5086927;28;20055;-61
2022/10/18 00:49:10;;;;;;;3.27;1.00;;;;;;;;;;5082112;28;20031;-61
2022/10/18 00:51:46;;;;;;;2.27;1.23;;;;;;;;;;5077611;28;20380;-61
2022/10/18 00:54:16;;;;;;;1.17;0.73;;;;;;;;;;5085520;28;20021;-60
2022/10/18 00:56:46;;;;;;;2.23;1.20;;;;;;;;;;5073643;28;20032;-60
2022/10/18 00:59:16;;;;;;;1.20;0.77;;;;;;;;;;5075774;28;20040;-61
2022/10/18 01:01:45;;;;;;;5.13;0.90;;;;;;;;;;5088147;28;20028;-61
2022/10/18 01:04:15;;;;;;;0.93;0.63;;;;;;;;;;5086392;28;20535;-61
2022/10/18 01:07:01;;;;;;;1.13;1.00;;;;;;;;;;5076693;28;20584;-60
2022/10/18 01:09:33;;;;;;;0.53;0.40;;;;;;;;;;5069625;28;20036;-60
2022/10/18 01:12:20;;;;;;;1.00;0.67;;;;;;;;;;5081138;28;20032;-61
2022/10/18 01:15:07;;;;;;;3.20;1.63;;;;;;;;;;5079811;28;20069;-62
2022/10/18 01:17:47;;;;;;;3.20;1.50;;;;;;;;;;5078923;28;20037;-61
2022/10/18 01:20:24;;;;;;;1.40;1.13;;;;;;;;;;5077980;28;20044;-62
2022/10/18 01:22:58;;;;;;;5.13;1.50;;;;;;;;;;5092530;28;20365;-63
2022/10/18 01:25:35;;;;;;;2.00;1.30;;;;;;;;;;5088689;28;20642;-63
2022/10/18 01:28:21;;;;;;;2.73;1.40;;;;;;;;;;5088667;28;20118;-63
2022/10/18 01:30:56;;;;;;;4.27;2.10;;;;;;;;;;5068934;28;20032;-63
2022/10/18 01:33:32;;;;;;;7.93;1.23;;;;;;;;;;5070871;28;20067;-62
2022/10/18 01:36:04;;;;;;;2.43;1.20;;;;;;;;;;5090841;28;20024;-63
2022/10/18 01:38:35;;;;;;;1.90;0.87;;;;;;;;;;5093699;28;20082;-63
2022/10/18 01:41:04;;;;;;;2.83;1.77;;;;;;;;;;5075457;28;20093;-64
2022/10/18 01:43:35;;;;;;;5.33;2.07;;;;;;;;;;5093713;28;20024;-63
2022/10/18 01:46:04;;;;;;;1.83;1.43;;;;;;;;;;5090360;28;20020;-62
2022/10/18 01:48:37;;;;;;;2.83;1.33;;;;;;;;;;5088420;28;20051;-64
2022/10/18 01:51:06;;;;;;;2.73;1.43;;;;;;;;;;5088294;28;20032;-66
2022/10/18 01:53:36;;;;;;;6.60;2.70;;;;;;;;;;5088367;28;20020;-64
2022/10/18 01:56:23;;;;;;;2.97;1.30;;;;;;;;;;5091260;28;20024;-63
2022/10/18 01:58:56;;;;;;;15.00;2.03;;;;;;;;;;5093383;28;20057;-66
2022/10/18 02:01:57;;;;;;;5.07;1.43;;;;;;;;;;5093548;28;20078;-66
2022/10/18 02:04:26;;;;;;;7.40;2.20;;;;;;;;;;5038722;28;20036;-63
2022/10/18 02:06:59;;;;;;;1.80;1.17;;;;;;;;;;5086053;28;20123;-63
2022/10/18 02:09:41;;;;;;;2.27;1.27;;;;;;;;;;5087907;28;20035;-63
2022/10/18 02:12:12;;;;;;;1.30;1.00;;;;;;;;;;5087647;28;20028;-63
2022/10/18 02:14:42;;;;;;;1.27;0.77;;;;;;;;;;5087928;28;20370;-63
2022/10/18 02:17:12;;;;;;;4.10;1.90;;;;;;;;;;5088435;28;20031;-63
2022/10/18 02:19:50;;;;;;;1.70;1.10;;;;;;;;;;5092919;28;20081;-64
2022/10/18 02:22:20;;;;;;;2.17;1.20;;;;;;;;;;5092805;28;20383;-63
2022/10/18 02:25:00;;;;;;;3.10;1.23;;;;;;;;;;5092616;28;20027;-61
2022/10/18 02:27:29;;;;;;;3.00;0.83;;;;;;;;;;5088314;28;20044;-63
2022/10/18 02:29:58;;;;;;;1.90;1.17;;;;;;;;;;5070969;28;20017;-62
2022/10/18 02:32:33;;;;;;;1.03;0.80;;;;;;;;;;5067364;28;20060;-62
2022/10/18 02:35:11;;;;;;;1.75;1.05;;;;;;;;;;5076171;28;20016;-62
2022/10/18 02:37:41;;;;;;;3.10;1.37;;;;;;;;;;5087031;28;20032;-63
2022/10/18 02:40:11;;;;;;;1.03;0.80;;;;;;;;;;5071152;28;20375;-61
2022/10/18 02:42:45;;;;;;;1.23;0.90;;;;;;;;;;5092672;28;20017;-62
2022/10/18 02:45:14;;;;;;;1.90;1.00;;;;;;;;;;5079498;28;20283;-61
2022/10/18 02:47:43;;;;;;;1.23;0.97;;;;;;;;;;5072545;28;20111;-62
2022/10/18 02:50:13;;;;;;;3.03;1.17;;;;;;;;;;5071850;28;20384;-61
2022/10/18 02:52:42;;;;;;;2.50;1.37;;;;;;;;;;5069764;28;20031;-61
2022/10/18 02:55:11;;;;;;;2.40;1.17;;;;;;;;;;5067124;28;20072;-63
2022/10/18 02:57:41;;;;;;;3.17;1.60;;;;;;;;;;5074014;28;20040;-62
2022/10/18 03:00:10;;;;;;;2.07;1.10;;;;;;;;;;5082593;28;20028;-63
2022/10/18 03:02:39;;;;;;;1.53;0.97;;;;;;;;;;5069191;28;20075;-61
2022/10/18 03:05:09;;;;;;;1.83;0.90;;;;;;;;;;5072132;28;20483;-62
2022/10/18 03:07:38;;;;;;;5.37;1.07;;;;;;;;;;5087181;28;20024;-61
2022/10/18 03:10:07;;;;;;;3.87;1.60;;;;;;;;;;5092364;28;20027;-61
2022/10/18 03:12:36;;;;;;;3.47;2.07;;;;;;;;;;5092157;28;20020;-62
2022/10/18 03:15:06;;;;;;;2.50;1.63;;;;;;;;;;5089477;28;20028;-61
2022/10/18 03:17:35;;;;;;;0.93;0.80;;;;;;;;;;5087120;28;20557;-62
2022/10/18 03:20:04;;;;;;;1.37;0.80;;;;;;;;;;5085921;28;20019;-61
2022/10/18 03:22:33;;;;;;;6.63;1.00;;;;;;;;;;5086845;28;20043;-62
2022/10/18 03:25:08;;;;;;;2.90;1.43;;;;;;;;;;5089110;28;20031;-61
2022/10/18 03:27:38;;;;;;;2.20;1.40;;;;;;;;;;5091885;28;20366;-60
2022/10/18 03:30:10;;;;;;;0.80;0.57;;;;;;;;;;5092113;28;20084;-61
2022/10/18 03:32:40;;;;;;;1.97;1.23;;;;;;;;;;5092289;28;20021;-62
2022/10/18 03:35:08;;;;;;;1.77;1.03;;;;;;;;;;5081826;28;20059;-61
2022/10/18 03:37:35;;;;;;;1.20;0.80;;;;;;;;;;5069553;28;20036;-61
2022/10/18 03:40:01;;;;;;;1.53;0.97;;;;;;;;;;5066853;28;20115;-61
2022/10/18 03:42:28;;;;;;;1.80;1.23;;;;;;;;;;5066281;28;20028;-61
2022/10/18 03:44:55;;;;;;;0.30;0.30;;;;;;;;;;5066668;28;20054;-62
2022/10/18 03:47:21;;;;;;;1.10;0.87;;;;;;;;;;5068428;28;20433;-61
2022/10/18 03:49:48;;;;;;;1.30;1.00;;;;;;;;;;5077108;28;20111;-60
2022/10/18 03:52:15;;;;;;;33.70;1.13;;;;;;;;;;5092030;28;20025;-61
2022/10/18 03:54:41;;;;;;;2.00;0.53;;;;;;;;;;5073180;28;20020;-60
2022/10/18 03:57:08;;;;;;;1.33;0.70;;;;;;;;;;5072556;28;20032;-61
2022/10/18 03:59:35;;;;;;;2.20;1.07;;;;;;;;;;5070345;28;20074;-61
2022/10/18 04:02:01;;;;;;;1.77;0.83;;;;;;;;;;5070185;28;20491;-61
2022/10/18 04:04:28;;;;;;;0.90;0.80;;;;;;;;;;5069827;28;20102;-61
2022/10/18 04:06:55;;;;;;;0.87;0.80;;;;;;;;;;5079557;28;20043;-61
2022/10/18 04:09:21;;;;;;;1.53;1.23;;;;;;;;;;5090877;28;20077;-61
2022/10/18 04:12:02;;;;;;;;;;;;;;;;;;;;;
2022/10/18 04:14:33;;;;;;;1.97;1.00;;;;;;;;;;5094812;28;20020;-62
2022/10/18 04:17:03;;;;;;;1.43;0.80;;;;;;;;;;5084434;28;20032;-63
2022/10/18 04:19:37;;;;;;;1.13;0.93;;;;;;;;;;5074915;28;20041;-62
2022/10/18 04:22:04;;;;;;;2.80;1.40;;;;;;;;;;5072374;28;20467;-61
2022/10/18 04:24:30;;;;;;;1.47;1.03;;;;;;;;;;5086320;28;20471;-61
2022/10/18 04:26:57;;;;;;;0.67;0.67;;;;;;;;;;5089614;28;20108;-61
2022/10/18 04:29:24;;;;;;;1.13;0.93;;;;;;;;;;5090071;28;20020;-61
2022/10/18 04:31:50;;;;;;;1.20;0.90;;;;;;;;;;5091309;28;20077;-61
2022/10/18 04:34:17;;;;;;;1.63;1.13;;;;;;;;;;5092014;28;20029;-62
2022/10/18 04:36:44;;;;;;;1.13;0.70;;;;;;;;;;5074867;28;20024;-62
2022/10/18 04:39:10;;;;;;;0.67;0.47;;;;;;;;;;5088643;28;20032;-61
2022/10/18 04:41:37;;;;;;;1.83;1.13;;;;;;;;;;5094975;28;20048;-61
2022/10/18 04:44:04;;;;;;;1.90;1.27;;;;;;;;;;5092898;28;20047;-61
2022/10/18 04:46:31;;;;;;;5.70;1.00;;;;;;;;;;5089235;28;20039;-61
2022/10/18 04:49:00;;;;;;;1.67;0.80;;;;;;;;;;5089655;28;20024;-61
2022/10/18 04:51:30;;;;;;;1.00;0.70;;;;;;;;;;5087061;28;20020;-61
2022/10/18 04:53:56;;;;;;;1.07;0.93;;;;;;;;;;5082425;28;20103;-61
2022/10/18 04:56:23;;;;;;;1.80;1.30;;;;;;;;;;5094474;28;20479;-62
2022/10/18 04:58:50;;;;;;;2.53;1.50;;;;;;;;;;5094718;28;20032;-61
2022/10/18 05:01:17;;;;;;;2.67;1.27;;;;;;;;;;5093330;28;20028;-62
2022/10/18 05:03:44;;;;;;;1.03;0.87;;;;;;;;;;5074439;28;20024;-61
2022/10/18 05:06:11;;;;;;;2.63;1.57;;;;;;;;;;5076425;28;20024;-63
2022/10/18 05:08:37;;;;;;;0.50;0.50;;;;;;;;;;5089261;28;20077;-66
2022/10/18 05:11:04;;;;;;;1.97;1.13;;;;;;;;;;5089348;28;20520;-64
2022/10/18 05:13:31;;;;;;;1.27;0.90;;;;;;;;;;5088501;28;20031;-62
2022/10/18 05:15:59;;;;;;;0.73;0.73;;;;;;;;;;5089240;28;20035;-63
2022/10/18 05:18:25;;;;;;;2.60;1.40;;;;;;;;;;5093586;28;20036;-62
2022/10/18 05:20:52;;;;;;;3.20;1.47;;;;;;;;;;5093547;28;20031;-63
2022/10/18 05:23:19;;;;;;;2.53;1.20;;;;;;;;;;5094276;28;20104;-61
2022/10/18 05:25:45;;;;;;;1.53;1.20;;;;;;;;;;5094082;28;20103;-62
2022/10/18 05:28:12;;;;;;;1.83;1.20;;;;;;;;;;5093669;28;20027;-61
2022/10/18 05:30:40;;;;;;;1.03;0.80;;;;;;;;;;5088535;28;20030;-61
2022/10/18 05:33:06;;;;;;;2.90;1.13;;;;;;;;;;5088695;28;20024;-61
2022/10/18 05:35:34;;;;;;;0.80;0.77;;;;;;;;;;5074379;28;20027;-62
2022/10/18 05:50:14;;;;;;;2.20;1.37;;;;;;;;;;5090318;28;20394;-61
2022/10/18 05:52:41;;;;;;;3.40;1.83;;;;;;;;;;5067666;28;20032;-60
2022/10/18 05:55:08;;;;;;;1.70;1.00;;;;;;;;;;5068274;28;20031;-61
2022/10/18 05:57:34;;;;;;;1.10;0.77;;;;;;;;;;5067838;28;20074;-60
2022/10/18 06:00:01;;;;;;;2.73;1.03;;;;;;;;;;5068047;28;20031;-61
2022/10/18 06:02:28;;;;;;;3.13;1.70;;;;;;;;;;5092389;28;20467;-60
2022/10/18 06:04:54;;;;;;;0.97;0.77;;;;;;;;;;5093306;28;20024;-61
2022/10/18 06:07:21;;;;;;;1.63;1.17;;;;;;;;;;5093410;28;20024;-60
2022/10/18 06:09:47;;;;;;;1.73;1.33;;;;;;;;;;5092711;28;20027;-60
2022/10/18 06:12:14;;;;;;;1.07;0.87;;;;;;;;;;5073954;28;20031;-60
2022/10/18 06:14:43;;;;;;;1.33;0.93;;;;;;;;;;5068472;28;20183;-60
2022/10/18 06:17:10;;;;;;;1.50;0.97;;;;;;;;;;5067496;28;20020;-61
2022/10/18 06:19:37;;;;;;;7.27;1.00;;;;;;;;;;5067515;28;20115;-60
2022/10/18 06:22:04;;;;;;;2.07;1.10;;;;;;;;;;5084318;28;20024;-60
2022/10/18 06:24:31;;;;;;;2.93;1.60;;;;;;;;;;5091201;28;20031;-62
2022/10/18 06:26:57;;;;;;;1.97;1.20;;;;;;;;;;5091799;28;20030;-62
2022/10/18 06:29:24;;;;;;;0.50;0.40;;;;;;;;;;5093142;28;20482;-62
2022/10/18 06:31:51;;;;;;;3.27;1.40;;;;;;;;;;5077412;28;20384;-62
2022/10/18 06:34:17;;;;;;;2.10;1.33;;;;;;;;;;5072599;28;20495;-63
2022/10/18 06:36:44;;;;;;;4.90;1.13;;;;;;;;;;5068851;28;20025;-62
2022/10/18 06:39:10;;;;;;;1.17;0.90;;;;;;;;;;5065529;28;20446;-63
2022/10/18 06:41:37;;;;;;;1.37;1.27;;;;;;;;;;5079833;28;20019;-63
2022/10/18 06:44:12;;;;;;;1.10;0.93;;;;;;;;;;5087056;28;20082;-63
2022/10/18 06:46:40;;;;;;;1.08;0.85;;;;;;;;;;5072441;28;20497;-63
2022/10/18 06:49:06;;;;;;;1.13;1.00;;;;;;;;;;5092625;28;20016;-63
2022/10/18 06:51:33;;;;;;;2.10;1.10;;;;;;;;;;5080061;28;20024;-60
2022/10/18 06:54:00;;;;;;;0.60;0.50;;;;;;;;;;5072390;28;20025;-61
2022/10/18 06:56:26;;;;;;;0.53;0.47;;;;;;;;;;5072100;28;20436;-60
2022/10/18 06:58:53;;;;;;;0.67;0.57;;;;;;;;;;5068627;28;20352;-60
2022/10/18 07:01:19;;;;;;;5.57;1.17;;;;;;;;;;5076864;28;20081;-61
2022/10/18 07:03:47;;;;;;;0.43;0.40;;;;;;;;;;5087082;28;20028;-61
2022/10/18 07:06:14;;;;;;;0.93;0.83;;;;;;;;;;5087153;28;20020;-60
2022/10/18 07:08:41;;;;;;;0.73;0.67;;;;;;;;;;5089753;28;20390;-60
2022/10/18 07:11:08;;;;;;;1.33;1.07;;;;;;;;;;5084081;28;20067;-60
2022/10/18 07:13:35;;;;;;;1.10;0.90;;;;;;;;;;5072009;28;20048;-60
2022/10/18 07:16:08;;;;;;;1.70;0.97;;;;;;;;;;5072072;28;20433;-60
2022/10/18 07:18:35;;;;;;;1.30;0.90;;;;;;;;;;5072020;28;20039;-61
2022/10/18 07:21:03;;;;;;;1.87;1.00;;;;;;;;;;5076088;28;20027;-60
2022/10/18 07:23:32;;;;;;;1.23;1.00;;;;;;;;;;5086935;28;20054;-60
2022/10/18 07:25:58;;;;;;;1.20;0.90;;;;;;;;;;5086957;28;20120;-60
2022/10/18 07:28:25;;;;;;;3.60;1.07;;;;;;;;;;5086968;28;20035;-60
2022/10/18 07:30:52;;;;;;;2.93;1.03;;;;;;;;;;5083081;28;20025;-62
2022/10/18 07:33:19;;;;;;;3.47;2.00;;;;;;;;;;5071935;28;20040;-62
2022/10/18 07:35:46;;;;;;;1.03;0.80;;;;;;;;;;5071964;28;20104;-62
2022/10/18 07:38:13;;;;;;;0.87;0.80;;;;;;;;;;5075218;28;20037;-62
2022/10/18 07:40:40;;;;;;;1.53;1.20;;;;;;;;;;5078839;28;20028;-63
2022/10/18 07:43:06;;;;;;;1.63;1.23;;;;;;;;;;5093769;28;20020;-60
2022/10/18 07:45:33;;;;;;;0.60;0.60;;;;;;;;;;5090560;28;20016;-60
2022/10/18 07:48:00;;;;;;;0.90;0.73;;;;;;;;;;5090546;28;20157;-60
2022/10/18 07:50:26;;;;;;;1.23;1.03;;;;;;;;;;5089018;28;20093;-60
2022/10/18 07:52:53;;;;;;;2.07;1.00;;;;;;;;;;5075808;28;20478;-60
2022/10/18 07:55:20;;;;;;;0.50;0.50;;;;;;;;;;5087655;28;20026;-60
2022/10/18 07:57:46;;;;;;;1.57;0.83;;;;;;;;;;5075142;28;20029;-63
2022/10/18 08:00:13;;;;;;;1.33;0.87;;;;;;;;;;5075390;28;20096;-62
2022/10/18 08:02:40;;;;;;;1.17;0.90;;;;;;;;;;5093559;28;20035;-63
2022/10/18 08:05:06;;;;;;;1.67;1.23;;;;;;;;;;5093821;28;20021;-62
2022/10/18 08:07:33;;;;;;;1.60;1.27;;;;;;;;;;5090195;28;20111;-63
2022/10/18 08:10:00;;;;;;;0.50;0.50;;;;;;;;;;5090192;28;20058;-63
2022/10/18 08:12:26;;;;;;;1.70;1.37;;;;;;;;;;5073298;28;20684;-62
2022/10/18 08:14:53;;;;;;;2.03;1.53;;;;;;;;;;5070557;28;20024;-63
2022/10/18 08:17:20;;;;;;;2.90;1.90;;;;;;;;;;5075137;28;20036;-62
2022/10/18 08:19:46;;;;;;;3.97;1.93;;;;;;;;;;5074746;28;20020;-62
2022/10/18 08:22:13;;;;;;;4.50;1.47;;;;;;;;;;5089281;28;20482;-62
2022/10/18 08:24:40;;;;;;;4.00;1.20;;;;;;;;;;5095467;28;20031;-62
2022/10/18 08:27:07;;;;;;;2.10;1.07;;;;;;;;;;5094277;28;20020;-63
2022/10/18 08:29:34;;;;;;;1.80;1.20;;;;;;;;;;5089825;28;20880;-63
2022/10/18 08:32:01;;;;;;;1.47;1.03;;;;;;;;;;5076827;28;20029;-62
2022/10/18 08:34:27;;;;;;;1.80;1.37;;;;;;;;;;5069518;28;20027;-62
2022/10/18 08:36:54;;;;;;;2.37;1.43;;;;;;;;;;5073421;28;20386;-62
2022/10/18 08:39:20;;;;;;;1.00;0.93;;;;;;;;;;5095246;28;20033;-62
2022/10/18 08:41:57;;;;;;;1.70;1.20;;;;;;;;;;5095114;28;20024;-63
2022/10/18 08:44:28;;;;;;;2.00;0.83;;;;;;;;;;5094978;28;20031;-62
2022/10/18 08:46:58;;;;;;;1.00;0.90;;;;;;;;;;5090680;28;20101;-62
2022/10/18 08:49:39;;;;;;;2.57;1.10;;;;;;;;;;5072775;28;20070;-62
2022/10/18 08:52:14;;;;;;;3.13;1.07;;;;;;;;;;5069110;28;20024;-62
2022/10/18 08:54:51;;;;;;;1.42;1.15;;;;;;;;;;5069213;28;20020;-62
2022/10/18 08:57:18;;;;;;;0.63;0.53;;;;;;;;;;5070143;28;20082;-61
2022/10/18 08:59:44;;;;;;;1.97;1.30;;;;;;;;;;5070013;28;20020;-62
2022/10/18 09:02:26;;;;;;;1.07;0.93;;;;;;;;;;5074635;28;20028;-62
2022/10/18 09:05:11;;;;;;;2.90;1.07;;;;;;;;;;5074354;28;20418;-62
2022/10/18 09:08:08;;;;;;;1.08;0.80;;;;;;;;;;5083821;28;20031;-62
2022/10/18 09:10:50;;;;;;;1.53;1.37;;;;;;;;;;5093239;28;20040;-62
2022/10/18 09:13:26;;;;;;;1.50;1.23;;;;;;;;;;5089704;28;20024;-59
2022/10/18 09:16:01;;;;;;;1.63;1.13;;;;;;;;;;5088988;28;20375;-59
2022/10/18 09:18:42;;;;;;;2.08;1.40;;;;;;;;;;5071805;28;20697;-59
2022/10/18 09:21:19;;;;;;;1.23;0.93;;;;;;;;;;5068578;28;20021;-59
2022/10/18 09:23:50;;;;;;;1.23;0.87;;;;;;;;;;5073834;28;20108;-60
2022/10/18 09:26:18;;;;;;;2.73;1.30;;;;;;;;;;5073985;28;20390;-60
2022/10/18 09:28:54;;;;;;;1.70;1.17;;;;;;;;;;5092083;28;20422;-60
2022/10/18 09:31:26;;;;;;;2.77;1.70;;;;;;;;;;5093865;28;20020;-59
2022/10/18 09:34:00;;;;;;;1.47;0.90;;;;;;;;;;5092949;28;20046;-60
2022/10/18 09:36:36;;;;;;;0.67;0.67;;;;;;;;;;5088490;28;20025;-59
2022/10/18 09:39:10;;;;;;;2.10;1.33;;;;;;;;;;5068218;28;20099;-59
2022/10/18 09:41:54;;;;;;;4.10;1.50;;;;;;;;;;5068094;28;20094;-59
2022/10/18 09:44:25;;;;;;;1.88;1.58;;;;;;;;;;5069624;28;20352;-59
2022/10/18 09:46:57;;;;;;;6.90;1.97;;;;;;;;;;5075507;28;20094;-59
2022/10/18 09:49:29;;;;;;;0.97;0.70;;;;;;;;;;5093786;28;20024;-60
2022/10/18 09:51:56;;;;;;;0.87;0.60;;;;;;;;;;5093816;28;20020;-59
2022/10/18 09:54:30;;;;;;;0.83;0.77;;;;;;;;;;5093125;28;20024;-59
2022/10/18 09:57:03;;;;;;;0.90;0.80;;;;;;;;;;5087711;28;20056;-59
2022/10/18 09:59:30;;;;;;;1.63;1.17;;;;;;;;;;5067483;28;20039;-60
2022/10/18 10:01:56;;;;;;;1.33;1.10;;;;;;;;;;5066988;28;20467;-60
2022/10/18 10:04:23;;;;;;;2.60;1.73;;;;;;;;;;5067665;28;20036;-59
2022/10/18 10:06:54;;;;;;;2.23;1.80;;;;;;;;;;5071141;28;20471;-59
2022/10/18 10:09:31;;;;;;;1.47;1.03;;;;;;;;;;5093135;28;20486;-59
2022/10/18 10:11:58;;;;;;;2.20;1.47;;;;;;;;;;5093261;28;20023;-59
2022/10/18 10:14:26;;;;;;;1.33;1.20;;;;;;;;;;5093258;28;20028;-59
2022/10/18 10:16:55;;;;;;;2.33;1.50;;;;;;;;;;5090942;28;20036;-59
2022/10/18 10:19:30;;;;;;;1.13;1.00;;;;;;;;;;5069933;28;20064;-62
2022/10/18 10:21:59;;;;;;;1.80;1.23;;;;;;;;;;5067426;28;20073;-62
2022/10/18 10:24:32;;;;;;;1.53;1.23;;;;;;;;;;5066154;28;20036;-63
2022/10/18 10:27:01;;;;;;;1.43;1.03;;;;;;;;;;5069750;28;20107;-62
2022/10/18 10:29:43;;;;;;;4.17;2.17;;;;;;;;;;5090235;28;20471;-62
2022/10/18 10:32:12;;;;;;;1.90;1.30;;;;;;;;;;5092998;28;20463;-62
2022/10/18 10:34:39;;;;;;;1.50;0.80;;;;;;;;;;5092961;28;20016;-61
2022/10/18 10:37:26;;;;;;;1.20;1.10;;;;;;;;;;5089105;28;20032;-62
2022/10/18 10:40:12;;;;;;;1.90;1.33;;;;;;;;;;5058260;28;20531;-62
2022/10/18 10:42:51;;;;;;;23.60;0.90;;;;;;;;;;5067639;28;20034;-62
2022/10/18 10:45:19;;;;;;;1.70;1.40;;;;;;;;;;5067307;28;20083;-62
2022/10/18 10:47:47;;;;;;;2.10;1.30;;;;;;;;;;5075429;28;20403;-61
2022/10/18 10:50:22;;;;;;;2.30;1.23;;;;;;;;;;5086785;28;20416;-62
2022/10/18 10:52:48;;;;;;;2.67;1.27;;;;;;;;;;5092301;28;20471;-62
2022/10/18 10:55:19;;;;;;;1.60;1.40;;;;;;;;;;5092365;28;20398;-62
2022/10/18 10:57:48;;;;;;;1.70;1.43;;;;;;;;;;5090630;28;20138;-62
2022/10/18 11:00:33;;;;;;;4.03;1.63;;;;;;;;;;5092226;28;20035;-61
2022/10/18 11:03:17;;;;;;;1.63;1.13;;;;;;;;;;5075129;28;20063;-62
2022/10/18 11:05:47;;;;;;;2.20;1.80;;;;;;;;;;5066792;28;20021;-62
2022/10/18 11:08:20;;;;;;;1.83;1.27;;;;;;;;;;5067256;28;20543;-62
2022/10/18 11:10:50;;;;;;;2.03;1.17;;;;;;;;;;5066371;28;20055;-61
2022/10/18 11:13:35;;;;;;;2.40;1.40;;;;;;;;;;5085049;28;20063;-62
2022/10/18 11:16:02;;;;;;;;;;;;;;;;;;5092853;28;20111;-62
2022/10/18 11:18:31;;;;;;;1.77;1.37;;;;;;;;;;5092354;28;20006;-61
2022/10/18 11:21:07;;;;;;;2.60;1.87;;;;;;;;;;5091970;28;20025;-61
2022/10/18 11:23:36;;;;;;;1.17;1.00;;;;;;;;;;5072269;28;20468;-59
2022/10/18 11:26:12;;;;;;;2.00;1.50;;;;;;;;;;5069633;28;20031;-60
2022/10/18 11:28:52;;;;;;;2.30;1.67;;;;;;;;;;5066532;28;20036;-59
2022/10/18 11:31:29;;;;;;;2.17;1.40;;;;;;;;;;5067092;28;20025;-59
2022/10/18 11:34:05;;;;;;;1.20;1.10;;;;;;;;;;5086933;28;20372;-59
2022/10/18 11:36:32;;;;;;;1.17;1.00;;;;;;;;;;5089863;28;20490;-59
2022/10/18 11:39:06;;;;;;;1.40;1.27;;;;;;;;;;5090282;28;20090;-59
2022/10/18 11:41:43;;;;;;;3.07;1.40;;;;;;;;;;5091841;28;20020;-59
2022/10/18 11:44:19;;;;;;;1.77;1.50;;;;;;;;;;5092132;28;20028;-59
2022/10/18 11:46:51;;;;;;;5.70;1.93;;;;;;;;;;5092086;28;20051;-59
2022/10/18 11:49:18;;;;;;;1.90;1.40;;;;;;;;;;5075907;28;20033;-59
2022/10/18 11:51:47;;;;;;;2.77;1.87;;;;;;;;;;5066071;28;20042;-59
2022/10/18 11:54:23;;;;;;;1.93;1.57;;;;;;;;;;5066509;28;20044;-59
2022/10/18 11:57:02;;;;;;;2.63;1.70;;;;;;;;;;5066485;28;20021;-59
2022/10/18 11:59:48;;;;;;;6.60;2.03;;;;;;;;;;5083220;28;20483;-60
2022/10/18 12:02:18;;;;;;;3.10;1.83;;;;;;;;;;5091775;28;20490;-60
2022/10/18 12:04:51;;;;;;;1.93;1.37;;;;;;;;;;5092124;28;20020;-59
2022/10/18 12:07:18;;;;;;;1.47;1.10;;;;;;;;;;5091830;28;20024;-59
2022/10/18 12:09:47;;;;;;;1.60;1.30;;;;;;;;;;5076700;28;20382;-59
2022/10/18 12:12:13;;;;;;;1.87;1.40;;;;;;;;;;5065962;28;20025;-59
2022/10/18 12:14:49;;;;;;;2.00;1.50;;;;;;;;;;5066215;28;20040;-59
2022/10/18 12:17:22;;;;;;;2.83;1.20;;;;;;;;;;5066210;28;20082;-59
2022/10/18 12:19:50;;;;;;;5.50;2.50;;;;;;;;;;5080463;28;20111;-59
2022/10/18 12:22:23;;;;;;;1.47;1.10;;;;;;;;;;5091756;28;20617;-59
2022/10/18 12:24:50;;;;;;;2.00;1.33;;;;;;;;;;5093800;28;20024;-59
2022/10/18 12:27:17;;;;;;;2.33;1.60;;;;;;;;;;5095443;28;20376;-59
2022/10/18 12:29:49;;;;;;;3.10;1.90;;;;;;;;;;5081225;28;20103;-59
2022/10/18 12:32:18;;;;;;;1.03;0.93;;;;;;;;;;5073837;28;20395;-59
2022/10/18 12:35:05;;;;;;;0.77;0.70;;;;;;;;;;5069580;28;20017;-59
2022/10/18 12:37:54;;;;;;;1.90;1.47;;;;;;;;;;5069049;28;20029;-60
2022/10/18 12:40:29;;;;;;;3.67;2.33;;;;;;;;;;5087708;28;20039;-61
2022/10/18 12:42:56;;;;;;;14.67;2.80;;;;;;;;;;5091721;28;20024;-62
2022/10/18 12:45:25;;;;;;;2.13;1.63;;;;;;;;;;5094977;28;20470;-62
2022/10/18 12:47:52;;;;;;;3.00;1.60;;;;;;;;;;5094942;28;20023;-62
2022/10/18 12:50:26;;;;;;;2.63;1.60;;;;;;;;;;5076612;28;20410;-61
2022/10/18 12:53:22;;;;;;;1.98;1.58;;;;;;;;;;5074690;28;20055;-62
2022/10/18 12:55:50;;;;;;;2.55;1.40;;;;;;;;;;5054009;28;20037;-61
2022/10/18 12:58:25;;;;;;;2.97;2.20;;;;;;;;;;5069724;28;20467;-62
2022/10/18 13:00:52;;;;;;;2.35;1.75;;;;;;;;;;5089390;28;20020;-61
2022/10/18 13:03:25;;;;;;;2.07;1.30;;;;;;;;;;5089187;28;20036;-62
2022/10/18 13:05:52;;;;;;;2.77;2.13;;;;;;;;;;5072408;28;20449;-61
2022/10/18 13:08:29;;;;;;;1.60;1.20;;;;;;;;;;5074337;28;20120;-62
2022/10/18 13:11:01;;;;;;;2.50;2.10;;;;;;;;;;5074139;28;20093;-62
2022/10/18 13:13:35;;;;;;;2.40;1.90;;;;;;;;;;5074079;28;20033;-61
2022/10/18 13:16:21;;;;;;;3.73;2.30;;;;;;;;;;5073624;28;20025;-62
2022/10/18 13:18:54;;;;;;;2.87;2.13;;;;;;;;;;5071539;28;20028;-62
2022/10/18 13:21:27;;;;;;;2.40;1.87;;;;;;;;;;5088647;28;20119;-62
2022/10/18 13:23:53;;;;;;;3.77;1.83;;;;;;;;;;5088836;28;20371;-62
2022/10/18 13:26:52;;;;;;;1.60;1.50;;;;;;;;;;5088610;28;20012;-62
2022/10/18 13:29:28;;;;;;;1.97;1.67;;;;;;;;;;5031824;28;20118;-62
2022/10/18 13:31:59;;;;;;;2.73;2.20;;;;;;;;;;5073629;28;20081;-61
2022/10/18 13:34:37;;;;;;;1.87;1.33;;;;;;;;;;5073597;28;20040;-62
2022/10/18 13:37:10;;;;;;;3.50;2.07;;;;;;;;;;5073758;28;20134;-59
2022/10/18 13:39:37;;;;;;;3.90;2.53;;;;;;;;;;5079796;28;20114;-59
2022/10/18 13:42:07;;;;;;;2.80;2.37;;;;;;;;;;5088362;28;20028;-59
2022/10/18 13:44:39;;;;;;;2.43;1.80;;;;;;;;;;5087902;28;20020;-59
2022/10/18 13:47:05;;;;;;;3.90;2.70;;;;;;;;;;5088397;28;20028;-59
2022/10/18 13:49:50;;;;;;;3.87;2.60;;;;;;;;;;5081837;28;20032;-59
2022/10/18 13:52:49;;;;;;;6.80;2.90;;;;;;;;;;5073441;28;20031;-59
2022/10/18 13:55:16;;;;;;;2.80;2.10;;;;;;;;;;5029319;28;20040;-59
2022/10/18 13:57:52;;;;;;;7.40;1.63;;;;;;;;;;5073100;28;20028;-59
2022/10/18 14:00:24;;;;;;;3.40;2.47;;;;;;;;;;5087007;28;20020;-59
2022/10/18 14:03:09;;;;;;;3.97;2.57;;;;;;;;;;5088949;28;20095;-59
2022/10/18 14:06:13;;;;;;;1.95;1.70;;;;;;;;;;5088005;28;20024;-59
2022/10/18 14:08:43;;;;;;;5.23;2.67;;;;;;;;;;4985708;28;20042;-59
2022/10/18 14:11:28;;;;;;;3.23;2.07;;;;;;;;;;5071146;28;20036;-60
2022/10/18 14:14:01;;;;;;;4.40;2.28;;;;;;;;;;5093262;28;20928;-59
2022/10/18 14:16:34;;;;;;;3.13;2.13;;;;;;;;;;5092870;28;20047;-59
2022/10/18 14:19:04;;;;;;;5.90;3.27;;;;;;;;;;5092191;28;20103;-61
2022/10/18 14:21:34;;;;;;;3.27;2.40;;;;;;;;;;5093247;28;20032;-62
2022/10/18 14:24:02;;;;;;;3.77;3.00;;;;;;;;;;5091335;28;20596;-63
2022/10/18 14:26:29;;;;;;;2.83;2.27;;;;;;;;;;5087710;28;20044;-60
2022/10/18 14:29:04;;;;;;;5.97;2.67;;;;;;;;;;5071454;28;20021;-60
2022/10/18 14:31:30;;;;;;;5.55;1.92;;;;;;;;;;5068417;28;20036;-61
2022/10/18 14:33:58;;;;;;;4.93;2.47;;;;;;;;;;5070317;28;20024;-60
2022/10/18 14:36:30;;;;;;;5.10;3.07;;;;;;;;;;5092763;28;20027;-60
2022/10/18 14:38:59;;;;;;;4.87;2.73;;;;;;;;;;5092881;28;20036;-60
2022/10/18 14:41:27;;;;;;;5.87;2.33;;;;;;;;;;5092703;28;20417;-60
2022/10/18 14:44:09;;;;;;;4.50;2.70;;;;;;;;;;5091579;28;20032;-60
2022/10/18 14:46:41;;;;;;;6.93;3.17;;;;;;;;;;5070278;28;20028;-61
2022/10/18 14:49:10;;;;;;;2.37;2.03;;;;;;;;;;5070322;28;20028;-61
2022/10/18 14:51:39;;;;;;;4.13;2.50;;;;;;;;;;5087202;28;20048;-60
2022/10/18 14:54:06;;;;;;;9.77;3.27;;;;;;;;;;5086969;28;20076;-60
2022/10/18 14:56:42;;;;;;;5.03;3.17;;;;;;;;;;5087002;28;20482;-60
2022/10/18 14:59:28;;;;;;;3.83;2.80;;;;;;;;;;5090146;28;20025;-60
2022/10/18 15:02:06;;;;;;;4.87;3.70;;;;;;;;;;5092635;28;20024;-60
2022/10/18 15:04:33;;;;;;;8.83;5.67;;;;;;;;;;5091965;28;20046;-60
2022/10/18 15:07:07;;;;;;;6.77;5.20;;;;;;;;;;5092428;28;20090;-60
2022/10/18 15:09:35;;;;;;;9.55;5.13;;;;;;;;;;5088600;28;20031;-61
2022/10/18 15:12:05;;;;;;;11.80;5.23;;;;;;;;;;5087354;28;20043;-60
2022/10/18 15:14:32;;;;;;;9.60;5.13;;;;;;;;;;5080824;28;20031;-60
2022/10/18 15:17:01;;;;;;;11.33;5.07;;;;;;;;;;5067286;28;20024;-60
2022/10/18 15:19:30;;;;;;;4.87;3.43;;;;;;;;;;5070348;28;20029;-60